sensor_id;sensor_type;location;lat;lon;timestamp;P1;durP1;ratioP1;P2;durP2;ratioP2
49376;SDS011;35253;34.688;33.040;2023-10-08T00:02:23;11.63;;;6.75;;
49376;SDS011;35253;34.688;33.040;2023-10-08T00:04:52;9.70;;;7.25;;
49376;SDS011;35253;34.688;33.040;2023-10-08T00:07:22;8.20;;;6.40;;
49376;SDS011;35253;34.688;33.040;2023-10-08T00:09:53;10.60;;;6.72;;
49376;SDS011;35253;34.688;33.040;2023-10-08T00:12:21;7.93;;;6.03;;
49376;SDS011;35253;34.688;33.040;2023-10-08T00:14:48;9.60;;;6.65;;
49376;SDS011;35253;34.688;33.040;2023-10-08T00:17:15;9.98;;;6.82;;
49376;SDS011;35253;34.688;33.040;2023-10-08T00:19:44;12.07;;;7.70;;
49376;SDS011;35253;34.688;33.040;2023-10-08T00:22:10;9.70;;;7.50;;
49376;SDS011;35253;34.688;33.040;2023-10-08T00:24:38;9.82;;;6.00;;
49376;SDS011;35253;34.688;33.040;2023-10-08T00:27:09;8.55;;;6.07;;
49376;SDS011;35253;34.688;33.040;2023-10-08T00:29:35;9.48;;;6.00;;
49376;SDS011;35253;34.688;33.040;2023-10-08T00:34:37;10.15;;;6.72;;
49376;SDS011;35253;34.688;33.040;2023-10-08T00:37:07;7.80;;;7.00;;
49376;SDS011;35253;34.688;33.040;2023-10-08T00:39:36;10.60;;;7.55;;
49376;SDS011;35253;34.688;33.040;2023-10-08T00:42:03;12.25;;;8.80;;
49376;SDS011;35253;34.688;33.040;2023-10-08T00:44:37;25.55;;;13.70;;
49376;SDS011;35253;34.688;33.040;2023-10-08T00:47:13;24.98;;;16.10;;
49376;SDS011;35253;34.688;33.040;2023-10-08T00:49:40;22.73;;;13.70;;
49376;SDS011;35253;34.688;33.040;2023-10-08T00:52:08;13.88;;;10.18;;
49376;SDS011;35253;34.688;33.040;2023-10-08T00:54:35;10.32;;;8.52;;
49376;SDS011;35253;34.688;33.040;2023-10-08T00:57:31;16.63;;;10.25;;
49376;SDS011;35253;34.688;33.040;2023-10-08T01:00:01;11.75;;;8.20;;
49376;SDS011;35253;34.688;33.040;2023-10-08T01:02:29;16.35;;;10.35;;
49376;SDS011;35253;34.688;33.040;2023-10-08T01:05:11;11.45;;;7.28;;
49376;SDS011;35253;34.688;33.040;2023-10-08T01:07:39;11.93;;;7.40;;
49376;SDS011;35253;34.688;33.040;2023-10-08T01:10:10;10.35;;;6.50;;
49376;SDS011;35253;34.688;33.040;2023-10-08T01:12:38;13.90;;;7.10;;
49376;SDS011;35253;34.688;33.040;2023-10-08T01:15:20;11.63;;;6.45;;
49376;SDS011;35253;34.688;33.040;2023-10-08T01:17:53;7.53;;;5.75;;
49376;SDS011;35253;34.688;33.040;2023-10-08T01:20:25;9.68;;;7.03;;
49376;SDS011;35253;34.688;33.040;2023-10-08T01:23:10;6.70;;;5.97;;
49376;SDS011;35253;34.688;33.040;2023-10-08T01:25:38;8.20;;;6.38;;
49376;SDS011;35253;34.688;33.040;2023-10-08T01:28:05;11.73;;;6.55;;
49376;SDS011;35253;34.688;33.040;2023-10-08T01:30:43;8.48;;;5.65;;
49376;SDS011;35253;34.688;33.040;2023-10-08T01:33:15;10.00;;;6.18;;
49376;SDS011;35253;34.688;33.040;2023-10-08T01:35:46;7.70;;;6.68;;
49376;SDS011;35253;34.688;33.040;2023-10-08T01:38:15;10.63;;;7.00;;
49376;SDS011;35253;34.688;33.040;2023-10-08T01:40:46;6.82;;;6.03;;
49376;SDS011;35253;34.688;33.040;2023-10-08T01:43:16;7.50;;;6.35;;
49376;SDS011;35253;34.688;33.040;2023-10-08T01:45:42;8.93;;;6.05;;
49376;SDS011;35253;34.688;33.040;2023-10-08T01:48:09;7.45;;;6.38;;
49376;SDS011;35253;34.688;33.040;2023-10-08T01:50:35;11.88;;;6.82;;
49376;SDS011;35253;34.688;33.040;2023-10-08T01:53:02;10.90;;;6.70;;
49376;SDS011;35253;34.688;33.040;2023-10-08T01:55:32;9.95;;;7.43;;
49376;SDS011;35253;34.688;33.040;2023-10-08T01:58:10;13.43;;;8.57;;
49376;SDS011;35253;34.688;33.040;2023-10-08T02:00:41;8.30;;;6.85;;
49376;SDS011;35253;34.688;33.040;2023-10-08T02:03:11;7.72;;;6.93;;
49376;SDS011;35253;34.688;33.040;2023-10-08T02:05:38;8.68;;;7.43;;
49376;SDS011;35253;34.688;33.040;2023-10-08T02:08:07;9.55;;;7.00;;
49376;SDS011;35253;34.688;33.040;2023-10-08T02:10:37;9.20;;;6.10;;
49376;SDS011;35253;34.688;33.040;2023-10-08T02:13:08;8.50;;;6.25;;
49376;SDS011;35253;34.688;33.040;2023-10-08T02:15:35;9.43;;;6.53;;
49376;SDS011;35253;34.688;33.040;2023-10-08T02:18:02;7.13;;;6.13;;
49376;SDS011;35253;34.688;33.040;2023-10-08T02:20:29;6.85;;;6.18;;
49376;SDS011;35253;34.688;33.040;2023-10-08T02:22:55;11.60;;;7.22;;
49376;SDS011;35253;34.688;33.040;2023-10-08T02:25:20;9.65;;;6.97;;
49376;SDS011;35253;34.688;33.040;2023-10-08T02:27:48;11.85;;;6.55;;
49376;SDS011;35253;34.688;33.040;2023-10-08T02:30:14;10.43;;;6.70;;
49376;SDS011;35253;34.688;33.040;2023-10-08T02:32:39;8.55;;;6.90;;
49376;SDS011;35253;34.688;33.040;2023-10-08T02:35:08;12.38;;;6.28;;
49376;SDS011;35253;34.688;33.040;2023-10-08T02:37:39;10.00;;;7.15;;
49376;SDS011;35253;34.688;33.040;2023-10-08T02:40:07;9.45;;;6.80;;
49376;SDS011;35253;34.688;33.040;2023-10-08T02:42:59;9.15;;;6.43;;
49376;SDS011;35253;34.688;33.040;2023-10-08T02:45:26;8.40;;;5.97;;
49376;SDS011;35253;34.688;33.040;2023-10-08T02:47:53;12.43;;;7.07;;
49376;SDS011;35253;34.688;33.040;2023-10-08T02:50:19;9.25;;;6.82;;
49376;SDS011;35253;34.688;33.040;2023-10-08T02:52:47;12.75;;;6.55;;
49376;SDS011;35253;34.688;33.040;2023-10-08T02:55:16;13.98;;;6.20;;
49376;SDS011;35253;34.688;33.040;2023-10-08T02:58:09;10.20;;;6.43;;
49376;SDS011;35253;34.688;33.040;2023-10-08T03:00:47;9.93;;;6.10;;
49376;SDS011;35253;34.688;33.040;2023-10-08T03:03:14;8.55;;;5.72;;
49376;SDS011;35253;34.688;33.040;2023-10-08T03:05:49;9.82;;;6.72;;
49376;SDS011;35253;34.688;33.040;2023-10-08T03:08:17;14.13;;;10.77;;
49376;SDS011;35253;34.688;33.040;2023-10-08T03:10:48;7.30;;;6.45;;
49376;SDS011;35253;34.688;33.040;2023-10-08T03:13:20;11.23;;;6.60;;
49376;SDS011;35253;34.688;33.040;2023-10-08T03:15:46;11.27;;;6.47;;
49376;SDS011;35253;34.688;33.040;2023-10-08T03:18:28;8.30;;;5.50;;
49376;SDS011;35253;34.688;33.040;2023-10-08T03:21:07;7.97;;;6.78;;
49376;SDS011;35253;34.688;33.040;2023-10-08T03:23:46;7.65;;;6.57;;
49376;SDS011;35253;34.688;33.040;2023-10-08T03:26:16;9.70;;;7.07;;
49376;SDS011;35253;34.688;33.040;2023-10-08T03:29:04;8.40;;;6.30;;
49376;SDS011;35253;34.688;33.040;2023-10-08T03:31:33;9.27;;;6.60;;
49376;SDS011;35253;34.688;33.040;2023-10-08T03:34:14;10.13;;;6.03;;
49376;SDS011;35253;34.688;33.040;2023-10-08T03:36:52;9.95;;;6.00;;
49376;SDS011;35253;34.688;33.040;2023-10-08T03:39:24;7.65;;;6.20;;
49376;SDS011;35253;34.688;33.040;2023-10-08T03:42:10;9.77;;;5.85;;
49376;SDS011;35253;34.688;33.040;2023-10-08T03:44:38;12.82;;;8.25;;
49376;SDS011;35253;34.688;33.040;2023-10-08T03:47:08;9.65;;;5.95;;
49376;SDS011;35253;34.688;33.040;2023-10-08T03:49:36;7.43;;;5.63;;
49376;SDS011;35253;34.688;33.040;2023-10-08T03:52:09;6.05;;;5.45;;
49376;SDS011;35253;34.688;33.040;2023-10-08T03:54:35;5.63;;;5.13;;
49376;SDS011;35253;34.688;33.040;2023-10-08T03:57:07;8.77;;;6.55;;
49376;SDS011;35253;34.688;33.040;2023-10-08T03:59:40;9.50;;;5.85;;
49376;SDS011;35253;34.688;33.040;2023-10-08T04:02:06;10.48;;;6.22;;
49376;SDS011;35253;34.688;33.040;2023-10-08T04:04:43;8.05;;;6.85;;
49376;SDS011;35253;34.688;33.040;2023-10-08T04:07:22;9.30;;;5.53;;
49376;SDS011;35253;34.688;33.040;2023-10-08T04:09:58;9.43;;;6.13;;
49376;SDS011;35253;34.688;33.040;2023-10-08T04:12:34;8.77;;;6.18;;
49376;SDS011;35253;34.688;33.040;2023-10-08T04:15:04;12.68;;;6.63;;
49376;SDS011;35253;34.688;33.040;2023-10-08T04:17:35;7.75;;;6.50;;
49376;SDS011;35253;34.688;33.040;2023-10-08T04:20:12;9.05;;;6.50;;
49376;SDS011;35253;34.688;33.040;2023-10-08T04:22:57;9.70;;;6.53;;
49376;SDS011;35253;34.688;33.040;2023-10-08T04:25:27;6.15;;;5.55;;
49376;SDS011;35253;34.688;33.040;2023-10-08T04:27:57;10.05;;;6.95;;
49376;SDS011;35253;34.688;33.040;2023-10-08T04:33:02;9.55;;;6.20;;
49376;SDS011;35253;34.688;33.040;2023-10-08T04:35:35;12.18;;;6.05;;
49376;SDS011;35253;34.688;33.040;2023-10-08T04:38:04;11.98;;;6.00;;
49376;SDS011;35253;34.688;33.040;2023-10-08T04:40:34;7.97;;;5.75;;
49376;SDS011;35253;34.688;33.040;2023-10-08T04:43:13;11.55;;;6.57;;
49376;SDS011;35253;34.688;33.040;2023-10-08T04:45:41;12.52;;;6.15;;
49376;SDS011;35253;34.688;33.040;2023-10-08T04:48:06;10.75;;;6.63;;
49376;SDS011;35253;34.688;33.040;2023-10-08T04:50:35;8.43;;;6.63;;
49376;SDS011;35253;34.688;33.040;2023-10-08T04:53:02;9.38;;;5.55;;
49376;SDS011;35253;34.688;33.040;2023-10-08T04:55:34;13.35;;;6.00;;
49376;SDS011;35253;34.688;33.040;2023-10-08T04:58:00;6.43;;;5.22;;
49376;SDS011;35253;34.688;33.040;2023-10-08T05:00:30;11.85;;;5.57;;
49376;SDS011;35253;34.688;33.040;2023-10-08T05:03:19;9.02;;;5.32;;
49376;SDS011;35253;34.688;33.040;2023-10-08T05:05:48;6.93;;;5.93;;
49376;SDS011;35253;34.688;33.040;2023-10-08T05:08:34;11.68;;;6.40;;
49376;SDS011;35253;34.688;33.040;2023-10-08T05:11:18;13.25;;;6.40;;
49376;SDS011;35253;34.688;33.040;2023-10-08T05:13:50;9.32;;;5.45;;
49376;SDS011;35253;34.688;33.040;2023-10-08T05:16:30;13.25;;;6.28;;
49376;SDS011;35253;34.688;33.040;2023-10-08T05:19:10;11.50;;;6.60;;
49376;SDS011;35253;34.688;33.040;2023-10-08T05:22:11;11.30;;;7.10;;
49376;SDS011;35253;34.688;33.040;2023-10-08T05:24:53;10.98;;;7.10;;
49376;SDS011;35253;34.688;33.040;2023-10-08T05:27:40;14.80;;;7.57;;
49376;SDS011;35253;34.688;33.040;2023-10-08T05:30:16;12.20;;;6.13;;
49376;SDS011;35253;34.688;33.040;2023-10-08T05:32:53;13.48;;;6.68;;
49376;SDS011;35253;34.688;33.040;2023-10-08T05:35:35;8.57;;;6.57;;
49376;SDS011;35253;34.688;33.040;2023-10-08T05:40:52;12.20;;;7.10;;
49376;SDS011;35253;34.688;33.040;2023-10-08T05:43:21;13.10;;;6.88;;
49376;SDS011;35253;34.688;33.040;2023-10-08T05:46:03;14.15;;;6.88;;
49376;SDS011;35253;34.688;33.040;2023-10-08T05:48:44;15.30;;;7.22;;
49376;SDS011;35253;34.688;33.040;2023-10-08T05:51:16;9.43;;;6.10;;
49376;SDS011;35253;34.688;33.040;2023-10-08T05:54:02;11.48;;;7.25;;
49376;SDS011;35253;34.688;33.040;2023-10-08T05:56:37;9.85;;;6.60;;
49376;SDS011;35253;34.688;33.040;2023-10-08T05:59:23;18.83;;;7.57;;
49376;SDS011;35253;34.688;33.040;2023-10-08T06:01:56;8.88;;;6.47;;
49376;SDS011;35253;34.688;33.040;2023-10-08T06:04:31;8.23;;;6.75;;
49376;SDS011;35253;34.688;33.040;2023-10-08T06:07:18;14.32;;;6.95;;
49376;SDS011;35253;34.688;33.040;2023-10-08T06:09:58;13.23;;;7.47;;
49376;SDS011;35253;34.688;33.040;2023-10-08T06:12:27;10.40;;;7.25;;
49376;SDS011;35253;34.688;33.040;2023-10-08T06:15:04;13.50;;;6.50;;
49376;SDS011;35253;34.688;33.040;2023-10-08T06:17:34;17.23;;;7.15;;
49376;SDS011;35253;34.688;33.040;2023-10-08T06:20:21;15.43;;;7.57;;
49376;SDS011;35253;34.688;33.040;2023-10-08T06:22:51;12.52;;;6.53;;
49376;SDS011;35253;34.688;33.040;2023-10-08T06:25:19;11.03;;;7.63;;
49376;SDS011;35253;34.688;33.040;2023-10-08T06:27:51;10.70;;;6.65;;
49376;SDS011;35253;34.688;33.040;2023-10-08T06:30:23;10.15;;;7.50;;
49376;SDS011;35253;34.688;33.040;2023-10-08T06:32:54;11.48;;;7.20;;
49376;SDS011;35253;34.688;33.040;2023-10-08T06:35:21;10.88;;;5.68;;
49376;SDS011;35253;34.688;33.040;2023-10-08T06:37:52;9.65;;;7.05;;
49376;SDS011;35253;34.688;33.040;2023-10-08T06:40:20;9.02;;;6.30;;
49376;SDS011;35253;34.688;33.040;2023-10-08T06:43:01;10.18;;;6.57;;
49376;SDS011;35253;34.688;33.040;2023-10-08T06:45:47;13.65;;;6.88;;
49376;SDS011;35253;34.688;33.040;2023-10-08T06:48:17;12.48;;;6.30;;
49376;SDS011;35253;34.688;33.040;2023-10-08T06:50:48;10.95;;;7.68;;
49376;SDS011;35253;34.688;33.040;2023-10-08T06:53:15;18.70;;;12.65;;
49376;SDS011;35253;34.688;33.040;2023-10-08T06:55:43;20.05;;;12.68;;
49376;SDS011;35253;34.688;33.040;2023-10-08T06:58:10;25.88;;;14.73;;
49376;SDS011;35253;34.688;33.040;2023-10-08T07:00:39;21.02;;;11.40;;
49376;SDS011;35253;34.688;33.040;2023-10-08T07:03:15;15.38;;;8.93;;
49376;SDS011;35253;34.688;33.040;2023-10-08T07:05:46;11.73;;;9.93;;
49376;SDS011;35253;34.688;33.040;2023-10-08T07:08:32;14.98;;;8.40;;
49376;SDS011;35253;34.688;33.040;2023-10-08T07:11:01;12.68;;;8.13;;
49376;SDS011;35253;34.688;33.040;2023-10-08T07:13:32;17.60;;;10.40;;
49376;SDS011;35253;34.688;33.040;2023-10-08T07:15:58;23.42;;;14.18;;
49376;SDS011;35253;34.688;33.040;2023-10-08T07:18:26;16.67;;;11.15;;
49376;SDS011;35253;34.688;33.040;2023-10-08T07:20:53;24.20;;;13.88;;
49376;SDS011;35253;34.688;33.040;2023-10-08T07:23:20;24.38;;;15.80;;
49376;SDS011;35253;34.688;33.040;2023-10-08T07:28:43;20.27;;;14.40;;
49376;SDS011;35253;34.688;33.040;2023-10-08T07:31:17;14.73;;;10.07;;
49376;SDS011;35253;34.688;33.040;2023-10-08T07:33:48;18.55;;;10.05;;
49376;SDS011;35253;34.688;33.040;2023-10-08T07:36:24;15.98;;;9.57;;
49376;SDS011;35253;34.688;33.040;2023-10-08T07:38:52;16.60;;;9.60;;
49376;SDS011;35253;34.688;33.040;2023-10-08T07:41:18;25.75;;;16.35;;
49376;SDS011;35253;34.688;33.040;2023-10-08T07:43:48;18.52;;;11.07;;
49376;SDS011;35253;34.688;33.040;2023-10-08T07:46:23;14.55;;;8.93;;
49376;SDS011;35253;34.688;33.040;2023-10-08T07:48:51;18.38;;;11.70;;
49376;SDS011;35253;34.688;33.040;2023-10-08T07:51:18;21.52;;;12.52;;
49376;SDS011;35253;34.688;33.040;2023-10-08T07:53:50;19.30;;;10.95;;
49376;SDS011;35253;34.688;33.040;2023-10-08T07:56:36;16.15;;;11.05;;
49376;SDS011;35253;34.688;33.040;2023-10-08T07:59:04;21.95;;;12.80;;
49376;SDS011;35253;34.688;33.040;2023-10-08T08:01:34;24.83;;;16.48;;
49376;SDS011;35253;34.688;33.040;2023-10-08T08:04:00;24.30;;;16.65;;
49376;SDS011;35253;34.688;33.040;2023-10-08T08:06:25;34.47;;;21.48;;
49376;SDS011;35253;34.688;33.040;2023-10-08T08:08:51;28.48;;;17.25;;
49376;SDS011;35253;34.688;33.040;2023-10-08T08:11:17;15.85;;;10.13;;
49376;SDS011;35253;34.688;33.040;2023-10-08T08:13:43;19.05;;;11.48;;
49376;SDS011;35253;34.688;33.040;2023-10-08T08:16:16;21.05;;;13.15;;
49376;SDS011;35253;34.688;33.040;2023-10-08T08:18:51;17.42;;;12.18;;
49376;SDS011;35253;34.688;33.040;2023-10-08T08:21:20;18.55;;;10.27;;
49376;SDS011;35253;34.688;33.040;2023-10-08T08:23:48;16.15;;;8.82;;
49376;SDS011;35253;34.688;33.040;2023-10-08T08:26:19;21.75;;;11.30;;
49376;SDS011;35253;34.688;33.040;2023-10-08T08:29:00;19.35;;;12.95;;
49376;SDS011;35253;34.688;33.040;2023-10-08T08:31:28;21.80;;;12.65;;
49376;SDS011;35253;34.688;33.040;2023-10-08T08:34:00;16.70;;;9.88;;
49376;SDS011;35253;34.688;33.040;2023-10-08T08:36:39;17.38;;;9.45;;
49376;SDS011;35253;34.688;33.040;2023-10-08T08:39:11;20.90;;;13.45;;
49376;SDS011;35253;34.688;33.040;2023-10-08T08:41:42;17.25;;;11.65;;
49376;SDS011;35253;34.688;33.040;2023-10-08T08:44:08;22.90;;;16.33;;
49376;SDS011;35253;34.688;33.040;2023-10-08T08:46:35;15.50;;;11.35;;
49376;SDS011;35253;34.688;33.040;2023-10-08T08:49:04;14.73;;;9.20;;
49376;SDS011;35253;34.688;33.040;2023-10-08T08:51:33;18.08;;;11.18;;
49376;SDS011;35253;34.688;33.040;2023-10-08T08:54:00;17.77;;;10.80;;
49376;SDS011;35253;34.688;33.040;2023-10-08T08:56:32;17.85;;;12.80;;
49376;SDS011;35253;34.688;33.040;2023-10-08T08:59:06;16.85;;;12.55;;
49376;SDS011;35253;34.688;33.040;2023-10-08T09:01:37;20.75;;;18.00;;
49376;SDS011;35253;34.688;33.040;2023-10-08T09:04:04;21.40;;;16.25;;
49376;SDS011;35253;34.688;33.040;2023-10-08T09:06:36;17.40;;;12.57;;
49376;SDS011;35253;34.688;33.040;2023-10-08T09:09:06;18.30;;;13.05;;
49376;SDS011;35253;34.688;33.040;2023-10-08T09:11:50;23.67;;;15.02;;
49376;SDS011;35253;34.688;33.040;2023-10-08T09:16:46;18.23;;;12.40;;
49376;SDS011;35253;34.688;33.040;2023-10-08T09:19:12;18.35;;;11.15;;
49376;SDS011;35253;34.688;33.040;2023-10-08T09:21:43;22.30;;;15.05;;
49376;SDS011;35253;34.688;33.040;2023-10-08T09:24:24;17.42;;;13.35;;
49376;SDS011;35253;34.688;33.040;2023-10-08T09:26:52;14.45;;;10.75;;
49376;SDS011;35253;34.688;33.040;2023-10-08T09:29:17;19.23;;;12.40;;
49376;SDS011;35253;34.688;33.040;2023-10-08T09:31:52;15.43;;;9.02;;
49376;SDS011;35253;34.688;33.040;2023-10-08T09:34:22;19.80;;;12.15;;
49376;SDS011;35253;34.688;33.040;2023-10-08T09:36:57;19.13;;;10.25;;
49376;SDS011;35253;34.688;33.040;2023-10-08T09:39:25;21.30;;;13.50;;
49376;SDS011;35253;34.688;33.040;2023-10-08T09:41:54;24.83;;;15.90;;
49376;SDS011;35253;34.688;33.040;2023-10-08T09:44:23;14.43;;;10.15;;
49376;SDS011;35253;34.688;33.040;2023-10-08T09:46:57;17.40;;;11.70;;
49376;SDS011;35253;34.688;33.040;2023-10-08T09:49:33;23.03;;;14.67;;
49376;SDS011;35253;34.688;33.040;2023-10-08T09:52:07;25.15;;;15.70;;
49376;SDS011;35253;34.688;33.040;2023-10-08T09:54:43;13.07;;;9.80;;
49376;SDS011;35253;34.688;33.040;2023-10-08T09:57:12;15.43;;;10.52;;
49376;SDS011;35253;34.688;33.040;2023-10-08T09:59:39;23.10;;;13.57;;
49376;SDS011;35253;34.688;33.040;2023-10-08T10:02:06;26.13;;;16.58;;
49376;SDS011;35253;34.688;33.040;2023-10-08T10:04:35;22.37;;;12.67;;
49376;SDS011;35253;34.688;33.040;2023-10-08T10:07:09;14.38;;;10.60;;
49376;SDS011;35253;34.688;33.040;2023-10-08T10:09:37;14.45;;;10.13;;
49376;SDS011;35253;34.688;33.040;2023-10-08T10:12:05;12.60;;;10.02;;
49376;SDS011;35253;34.688;33.040;2023-10-08T10:14:41;18.15;;;14.07;;
49376;SDS011;35253;34.688;33.040;2023-10-08T10:17:09;21.92;;;14.70;;
49376;SDS011;35253;34.688;33.040;2023-10-08T10:19:36;21.52;;;10.88;;
49376;SDS011;35253;34.688;33.040;2023-10-08T10:22:03;18.92;;;12.07;;
49376;SDS011;35253;34.688;33.040;2023-10-08T10:24:35;16.20;;;9.85;;
49376;SDS011;35253;34.688;33.040;2023-10-08T10:27:12;17.98;;;9.77;;
49376;SDS011;35253;34.688;33.040;2023-10-08T10:29:43;13.90;;;9.75;;
49376;SDS011;35253;34.688;33.040;2023-10-08T10:32:13;12.32;;;9.70;;
49376;SDS011;35253;34.688;33.040;2023-10-08T10:34:44;18.58;;;10.98;;
49376;SDS011;35253;34.688;33.040;2023-10-08T10:37:18;24.83;;;12.75;;
49376;SDS011;35253;34.688;33.040;2023-10-08T10:39:56;14.85;;;10.55;;
49376;SDS011;35253;34.688;33.040;2023-10-08T10:42:26;14.00;;;9.52;;
49376;SDS011;35253;34.688;33.040;2023-10-08T10:44:54;13.55;;;9.02;;
49376;SDS011;35253;34.688;33.040;2023-10-08T10:47:21;12.80;;;8.60;;
49376;SDS011;35253;34.688;33.040;2023-10-08T10:49:48;15.30;;;10.23;;
49376;SDS011;35253;34.688;33.040;2023-10-08T10:52:24;33.10;;;19.23;;
49376;SDS011;35253;34.688;33.040;2023-10-08T10:55:12;22.70;;;15.88;;
49376;SDS011;35253;34.688;33.040;2023-10-08T10:57:39;14.43;;;10.57;;
49376;SDS011;35253;34.688;33.040;2023-10-08T11:00:11;14.07;;;9.30;;
49376;SDS011;35253;34.688;33.040;2023-10-08T11:02:56;11.75;;;8.65;;
49376;SDS011;35253;34.688;33.040;2023-10-08T11:05:27;12.70;;;9.38;;
49376;SDS011;35253;34.688;33.040;2023-10-08T11:07:58;12.82;;;8.82;;
49376;SDS011;35253;34.688;33.040;2023-10-08T11:10:42;15.55;;;9.90;;
49376;SDS011;35253;34.688;33.040;2023-10-08T11:13:20;14.32;;;8.20;;
49376;SDS011;35253;34.688;33.040;2023-10-08T11:15:53;20.23;;;13.00;;
49376;SDS011;35253;34.688;33.040;2023-10-08T11:18:23;17.55;;;10.73;;
49376;SDS011;35253;34.688;33.040;2023-10-08T11:20:52;14.68;;;9.43;;
49376;SDS011;35253;34.688;33.040;2023-10-08T11:23:37;13.43;;;9.65;;
49376;SDS011;35253;34.688;33.040;2023-10-08T11:26:07;16.25;;;10.20;;
49376;SDS011;35253;34.688;33.040;2023-10-08T11:28:36;22.27;;;12.98;;
49376;SDS011;35253;34.688;33.040;2023-10-08T11:31:12;17.00;;;10.23;;
49376;SDS011;35253;34.688;33.040;2023-10-08T11:33:41;26.58;;;16.27;;
49376;SDS011;35253;34.688;33.040;2023-10-08T11:36:08;35.63;;;21.83;;
49376;SDS011;35253;34.688;33.040;2023-10-08T11:38:46;18.30;;;11.48;;
49376;SDS011;35253;34.688;33.040;2023-10-08T11:41:19;19.35;;;11.05;;
49376;SDS011;35253;34.688;33.040;2023-10-08T11:46:19;19.67;;;10.40;;
49376;SDS011;35253;34.688;33.040;2023-10-08T11:48:51;15.25;;;10.73;;
49376;SDS011;35253;34.688;33.040;2023-10-08T11:51:16;19.00;;;10.32;;
49376;SDS011;35253;34.688;33.040;2023-10-08T11:53:43;18.10;;;11.43;;
49376;SDS011;35253;34.688;33.040;2023-10-08T11:56:12;19.42;;;11.25;;
49376;SDS011;35253;34.688;33.040;2023-10-08T11:58:39;15.77;;;9.27;;
49376;SDS011;35253;34.688;33.040;2023-10-08T12:01:10;15.07;;;11.20;;
49376;SDS011;35253;34.688;33.040;2023-10-08T12:03:43;12.45;;;8.98;;
49376;SDS011;35253;34.688;33.040;2023-10-08T12:06:13;17.52;;;11.13;;
49376;SDS011;35253;34.688;33.040;2023-10-08T12:08:47;17.75;;;9.75;;
49376;SDS011;35253;34.688;33.040;2023-10-08T12:11:18;17.50;;;10.75;;
49376;SDS011;35253;34.688;33.040;2023-10-08T12:13:48;15.48;;;10.25;;
49376;SDS011;35253;34.688;33.040;2023-10-08T12:16:15;19.58;;;11.98;;
49376;SDS011;35253;34.688;33.040;2023-10-08T12:18:46;19.77;;;12.30;;
49376;SDS011;35253;34.688;33.040;2023-10-08T12:21:24;26.70;;;14.15;;
49376;SDS011;35253;34.688;33.040;2023-10-08T12:23:50;17.23;;;11.77;;
49376;SDS011;35253;34.688;33.040;2023-10-08T12:26:16;17.80;;;11.50;;
49376;SDS011;35253;34.688;33.040;2023-10-08T12:28:46;14.25;;;10.00;;
49376;SDS011;35253;34.688;33.040;2023-10-08T12:31:14;17.45;;;13.02;;
49376;SDS011;35253;34.688;33.040;2023-10-08T12:33:41;17.40;;;11.48;;
49376;SDS011;35253;34.688;33.040;2023-10-08T12:36:08;14.68;;;12.10;;
49376;SDS011;35253;34.688;33.040;2023-10-08T12:41:08;26.55;;;16.25;;
49376;SDS011;35253;34.688;33.040;2023-10-08T12:43:38;19.67;;;12.63;;
49376;SDS011;35253;34.688;33.040;2023-10-08T12:46:04;13.35;;;9.75;;
49376;SDS011;35253;34.688;33.040;2023-10-08T12:48:36;15.32;;;9.50;;
49376;SDS011;35253;34.688;33.040;2023-10-08T12:51:02;19.50;;;12.75;;
49376;SDS011;35253;34.688;33.040;2023-10-08T12:53:31;19.42;;;11.00;;
49376;SDS011;35253;34.688;33.040;2023-10-08T12:56:05;21.15;;;13.32;;
49376;SDS011;35253;34.688;33.040;2023-10-08T12:58:35;20.27;;;12.30;;
49376;SDS011;35253;34.688;33.040;2023-10-08T13:01:16;14.82;;;11.50;;
49376;SDS011;35253;34.688;33.040;2023-10-08T13:03:45;20.52;;;12.95;;
49376;SDS011;35253;34.688;33.040;2023-10-08T13:06:16;17.30;;;11.25;;
49376;SDS011;35253;34.688;33.040;2023-10-08T13:08:54;18.33;;;11.85;;
49376;SDS011;35253;34.688;33.040;2023-10-08T13:11:21;16.90;;;11.52;;
49376;SDS011;35253;34.688;33.040;2023-10-08T13:13:51;18.88;;;12.27;;
49376;SDS011;35253;34.688;33.040;2023-10-08T13:18:46;23.70;;;13.40;;
49376;SDS011;35253;34.688;33.040;2023-10-08T13:21:12;21.77;;;10.73;;
49376;SDS011;35253;34.688;33.040;2023-10-08T13:23:38;21.38;;;13.50;;
49376;SDS011;35253;34.688;33.040;2023-10-08T13:26:04;18.38;;;12.38;;
49376;SDS011;35253;34.688;33.040;2023-10-08T13:28:34;16.75;;;11.55;;
49376;SDS011;35253;34.688;33.040;2023-10-08T13:31:01;17.83;;;11.93;;
49376;SDS011;35253;34.688;33.040;2023-10-08T13:33:35;24.88;;;15.65;;
49376;SDS011;35253;34.688;33.040;2023-10-08T13:36:04;20.50;;;12.27;;
49376;SDS011;35253;34.688;33.040;2023-10-08T13:38:33;21.30;;;11.25;;
49376;SDS011;35253;34.688;33.040;2023-10-08T13:41:00;21.85;;;17.17;;
49376;SDS011;35253;34.688;33.040;2023-10-08T13:43:31;32.40;;;20.02;;
49376;SDS011;35253;34.688;33.040;2023-10-08T13:46:00;30.88;;;18.15;;
49376;SDS011;35253;34.688;33.040;2023-10-08T13:48:34;14.10;;;10.88;;
49376;SDS011;35253;34.688;33.040;2023-10-08T13:51:03;16.50;;;11.63;;
49376;SDS011;35253;34.688;33.040;2023-10-08T13:53:32;15.50;;;10.60;;
49376;SDS011;35253;34.688;33.040;2023-10-08T13:55:59;19.27;;;10.55;;
49376;SDS011;35253;34.688;33.040;2023-10-08T13:58:28;19.55;;;11.63;;
49376;SDS011;35253;34.688;33.040;2023-10-08T14:00:55;27.38;;;15.48;;
49376;SDS011;35253;34.688;33.040;2023-10-08T14:03:29;20.30;;;10.88;;
49376;SDS011;35253;34.688;33.040;2023-10-08T14:05:59;14.50;;;10.60;;
49376;SDS011;35253;34.688;33.040;2023-10-08T14:08:30;27.98;;;16.20;;
49376;SDS011;35253;34.688;33.040;2023-10-08T14:10:58;26.98;;;17.60;;
49376;SDS011;35253;34.688;33.040;2023-10-08T14:13:30;20.92;;;12.75;;
49376;SDS011;35253;34.688;33.040;2023-10-08T14:16:01;32.22;;;22.42;;
49376;SDS011;35253;34.688;33.040;2023-10-08T14:18:33;32.90;;;19.13;;
49376;SDS011;35253;34.688;33.040;2023-10-08T14:21:06;32.55;;;18.27;;
49376;SDS011;35253;34.688;33.040;2023-10-08T14:23:37;23.38;;;13.00;;
49376;SDS011;35253;34.688;33.040;2023-10-08T14:26:05;26.53;;;14.43;;
49376;SDS011;35253;34.688;33.040;2023-10-08T14:28:37;23.08;;;13.20;;
49376;SDS011;35253;34.688;33.040;2023-10-08T14:31:08;38.28;;;22.58;;
49376;SDS011;35253;34.688;33.040;2023-10-08T14:33:41;17.10;;;10.75;;
49376;SDS011;35253;34.688;33.040;2023-10-08T14:36:09;16.75;;;11.73;;
49376;SDS011;35253;34.688;33.040;2023-10-08T14:38:54;17.70;;;10.38;;
49376;SDS011;35253;34.688;33.040;2023-10-08T14:41:38;19.38;;;12.02;;
49376;SDS011;35253;34.688;33.040;2023-10-08T14:44:23;19.73;;;11.57;;
49376;SDS011;35253;34.688;33.040;2023-10-08T14:46:51;20.90;;;13.27;;
49376;SDS011;35253;34.688;33.040;2023-10-08T14:49:19;27.80;;;14.00;;
49376;SDS011;35253;34.688;33.040;2023-10-08T14:51:47;22.35;;;12.02;;
49376;SDS011;35253;34.688;33.040;2023-10-08T14:54:14;24.38;;;14.32;;
49376;SDS011;35253;34.688;33.040;2023-10-08T14:56:40;22.08;;;12.95;;
49376;SDS011;35253;34.688;33.040;2023-10-08T14:59:05;20.55;;;11.48;;
49376;SDS011;35253;34.688;33.040;2023-10-08T15:01:31;14.77;;;9.48;;
49376;SDS011;35253;34.688;33.040;2023-10-08T15:03:58;19.27;;;12.75;;
49376;SDS011;35253;34.688;33.040;2023-10-08T15:06:29;21.35;;;12.77;;